Whittemore, Iowa
Current Conditions -  °F | °C
As of 3:55 PM on Thursday 27 Nov 2014 (Local Time) from KAXA Reporting Station
Few Clouds Few Clouds  
Wind Chill: -24°   Ceiling: Unl
Heat Index: -17°   Visibility: 10mi
Dew Point: -21°   Wind: 7mph
Humidity: 72%   Direction: 150°SSE
Pressure: 30.4"   Gusts: NA
Location:  43.06°N, 94.43°W
Report Text: KAXA 272155Z AUTO 15006KT 10SM FEW050 M17/M21 A3040 RMK AO2
Loading
Personal Weather Stations






























Interactive Weather Map New forecast layout! Learn more

10-Day Weather Forecast

Advertisements
Track Severe Weather on mobile